sensor_id;sensor_type;location;lat;lon;timestamp;P1;durP1;ratioP1;P2;durP2;ratioP2
15297;SDS011;7750;48.796;9.026;2023-09-07T09:37:13;10.50;;;9.40;;
15297;SDS011;7750;48.796;9.026;2023-09-07T09:58:17;9.23;;;6.07;;
15297;SDS011;7750;48.796;9.026;2023-09-07T10:23:59;11.57;;;6.03;;
15297;SDS011;7750;48.796;9.026;2023-09-07T10:34:33;8.57;;;6.30;;
15297;SDS011;7750;48.796;9.026;2023-09-07T10:44:49;7.20;;;6.27;;
15297;SDS011;7750;48.796;9.026;2023-09-07T11:05:19;8.33;;;5.90;;
15297;SDS011;7750;48.796;9.026;2023-09-07T11:10:23;10.30;;;5.87;;
15297;SDS011;7750;48.796;9.026;2023-09-07T11:15:24;6.90;;;6.20;;
15297;SDS011;7750;48.796;9.026;2023-09-07T11:20:25;7.43;;;5.77;;
15297;SDS011;7750;48.796;9.026;2023-09-07T11:25:26;7.60;;;6.00;;
15297;SDS011;7750;48.796;9.026;2023-09-07T11:30:27;9.67;;;6.10;;
15297;SDS011;7750;48.796;9.026;2023-09-07T11:35:27;7.03;;;6.17;;
15297;SDS011;7750;48.796;9.026;2023-09-07T11:40:28;9.30;;;5.93;;
15297;SDS011;7750;48.796;9.026;2023-09-07T11:45:29;10.00;;;6.00;;
15297;SDS011;7750;48.796;9.026;2023-09-07T11:50:32;7.63;;;6.33;;
15297;SDS011;7750;48.796;9.026;2023-09-07T11:55:33;10.07;;;6.10;;
15297;SDS011;7750;48.796;9.026;2023-09-07T12:00:34;8.27;;;6.23;;
15297;SDS011;7750;48.796;9.026;2023-09-07T12:05:36;8.70;;;6.10;;
15297;SDS011;7750;48.796;9.026;2023-09-07T12:10:38;6.50;;;5.40;;
15297;SDS011;7750;48.796;9.026;2023-09-07T12:15:39;6.60;;;5.90;;
15297;SDS011;7750;48.796;9.026;2023-09-07T12:20:39;6.60;;;5.63;;
15297;SDS011;7750;48.796;9.026;2023-09-07T12:25:40;6.60;;;5.40;;
15297;SDS011;7750;48.796;9.026;2023-09-07T12:30:41;7.27;;;6.20;;
15297;SDS011;7750;48.796;9.026;2023-09-07T12:35:44;6.40;;;5.33;;
15297;SDS011;7750;48.796;9.026;2023-09-07T12:40:45;5.70;;;5.10;;
15297;SDS011;7750;48.796;9.026;2023-09-07T12:45:45;9.33;;;5.23;;
15297;SDS011;7750;48.796;9.026;2023-09-07T12:50:46;6.40;;;5.43;;
15297;SDS011;7750;48.796;9.026;2023-09-07T12:55:50;5.80;;;5.20;;
15297;SDS011;7750;48.796;9.026;2023-09-07T13:00:54;4.83;;;4.43;;
15297;SDS011;7750;48.796;9.026;2023-09-07T13:05:56;6.30;;;5.33;;
15297;SDS011;7750;48.796;9.026;2023-09-07T13:10:57;6.00;;;4.77;;
15297;SDS011;7750;48.796;9.026;2023-09-07T13:15:57;6.73;;;4.93;;
15297;SDS011;7750;48.796;9.026;2023-09-07T13:20:58;5.10;;;4.60;;
15297;SDS011;7750;48.796;9.026;2023-09-07T13:25:59;6.37;;;4.87;;
15297;SDS011;7750;48.796;9.026;2023-09-07T13:31:01;6.83;;;4.67;;
15297;SDS011;7750;48.796;9.026;2023-09-07T13:36:01;7.93;;;4.60;;
15297;SDS011;7750;48.796;9.026;2023-09-07T13:41:02;5.37;;;4.57;;
15297;SDS011;7750;48.796;9.026;2023-09-07T13:46:03;5.07;;;4.57;;
15297;SDS011;7750;48.796;9.026;2023-09-07T13:51:03;6.40;;;4.73;;
15297;SDS011;7750;48.796;9.026;2023-09-07T14:32:32;7.07;;;4.70;;
15297;SDS011;7750;48.796;9.026;2023-09-07T14:38:43;5.13;;;4.60;;
15297;SDS011;7750;48.796;9.026;2023-09-07T14:54:54;6.80;;;4.20;;
15297;SDS011;7750;48.796;9.026;2023-09-07T15:00:57;7.60;;;4.00;;
15297;SDS011;7750;48.796;9.026;2023-09-07T15:06:35;13.13;;;4.53;;
15297;SDS011;7750;48.796;9.026;2023-09-07T15:11:47;4.93;;;4.27;;
15297;SDS011;7750;48.796;9.026;2023-09-07T15:48:32;10.33;;;3.87;;
15297;SDS011;7750;48.796;9.026;2023-09-07T15:53:34;5.13;;;4.53;;
15297;SDS011;7750;48.796;9.026;2023-09-07T15:58:35;12.93;;;4.53;;
15297;SDS011;7750;48.796;9.026;2023-09-07T16:39:54;6.47;;;4.50;;
15297;SDS011;7750;48.796;9.026;2023-09-07T17:06:27;5.23;;;4.13;;
15297;SDS011;7750;48.796;9.026;2023-09-07T17:32:13;5.20;;;4.50;;
15297;SDS011;7750;48.796;9.026;2023-09-07T17:42:26;4.40;;;3.70;;
15297;SDS011;7750;48.796;9.026;2023-09-07T18:09:44;6.60;;;5.47;;
